NCAR-RAP Real-Time Weather Data

Output produced by METARs form (14 October 2019  23:40 UTC)
found at http://weather.rap.ucar.edu/surface/
 
KBTR 142253Z 07003KT 3SM -RA BR OVC005 22/21 A3003 RMK AO2 SLP168 P0019 T02220211
KBTR 142153Z 05005KT 2SM +RA BR OVC005 22/21 A3002 RMK AO2 SLP166 P0010 T02220211
KBTR 142053Z 04006KT 2 1/2SM -RA BR OVC003 22/21 A3001 RMK AO2 SLP161 P0001 60019 T02220211 56017
KBTR 141953Z 03006KT 2 1/2SM RA BR OVC003 22/21 A3002 RMK AO2 SLP166 P0013 T02220211
KBTR 141853Z 02003KT 2 1/2SM +RA BR OVC003 22/21 A3005 RMK AO2 SLP173 P0005 T02170206
KBTR 141840Z 05003KT 2 1/2SM -RA BR OVC003 21/20 A3005 RMK AO2 P0004 T02110200
KBTR 141800Z 07003KT 4SM -RA BR OVC003 21/20 A3006 RMK AO2 P0001 T02110200
KBTR 141753Z 05003KT 2 1/2SM -RA BR OVC003 21/20 A3006 RMK AO2 SLP178 P0002 60033 T02110200 10211 20183 58010
KBTR 141653Z 06004KT 2 1/2SM -RA BR BKN003 BKN012 OVC060 21/19 A3008 RMK AO2 SLP185 P0008 T02060194
KBTR 141618Z 10004KT 2 1/2SM RA BR BKN003 OVC075 19/18 A3009 RMK AO2 P0004 T01940183
KBTR 141553Z 00000KT 2 1/2SM RA BR BKN060 OVC075 19/18 A3009 RMK AO2 SLP189 P0016 T01940183
KBTR 141453Z 07005KT 2 1/2SM +RA BR SCT047 BKN080 OVC100 18/17 A3009 RMK AO2 SLP189 P0006 60007 T01830172 51013
KBTR 141450Z 06005KT 2 1/2SM +RA BR SCT047 BKN090 OVC110 18/17 A3009 RMK AO2 P0005
KBTR 141353Z 06003KT 8SM -RA FEW075 BKN090 OVC110 18/17 A3007 RMK AO2 SLP182 P0001 T01830167
KBTR 141253Z 06003KT 8SM -RA FEW070 BKN085 OVC110 18/16 A3005 RMK AO2 SLP175 P0000 T01830161
KBTR 141153Z 07003KT 10SM -RA FEW070 BKN090 OVC110 18/16 A3004 RMK AO2 RAB40 SLP170 P0000 60000 T01830156 10189 20183 53004
KBTR 141053Z 04003KT 10SM SCT070 OVC085 19/15 A3003 RMK AO2 RAB15E30 SLP169 P0000 T01890150
KBTR 140953Z 06004KT 10SM BKN080 19/15 A3001 RMK AO2 SLP162 T01890150
KBTR 140853Z AUTO 04005KT 10SM OVC080 19/14 A3002 RMK AO2 SLP166 T01890144 56006
KBTR 140753Z AUTO 06004KT 10SM OVC085 19/14 A3003 RMK AO2 SLP167 T01890144
KBTR 140653Z AUTO 06005KT 10SM CLR 19/14 A3003 RMK AO2 SLP169 T01890144
KBTR 140553Z AUTO 03004KT 10SM CLR 19/14 A3004 RMK AO2 SLP172 T01890144 10233 20189 402890139 58002
KBTR 140453Z 05005KT 10SM CLR 19/14 A3005 RMK AO2 SLP173 T01940144
KBTR 140353Z 08004KT 10SM CLR 19/14 A3005 RMK AO2 SLP173 T01890144
KBTR 140253Z 04006KT 10SM CLR 19/14 A3005 RMK AO2 SLP174 T01940144 53013
KBTR 140153Z 04006KT 10SM CLR 21/15 A3003 RMK AO2 SLP169 T02060150
KBTR 140053Z 36003KT 10SM CLR 22/15 A3002 RMK AO2 SLP166 T02170150
KBTR 132353Z 36004KT 10SM CLR 23/16 A3001 RMK AO2 SLP161 T02330156 10289 20233 53008
KBTR 132253Z 36006KT 10SM BKN100 26/16 A2999 RMK AO2 SLP156 T02560156
KBTR 132153Z VRB05KT 10SM FEW042 28/17 A2999 RMK AO2 SLP154 T02780172
KBTR 132053Z 33003KT 10SM CLR 28/17 A2998 RMK AO2 SLP153 T02830167 56016
KBTR 131953Z 05005KT 10SM CLR 28/17 A2999 RMK AO2 SLP154 T02830167
KBTR 131853Z 28005KT 10SM CLR 27/17 A3000 RMK AO2 SLP159 T02670172
KBTR 131753Z VRB04KT 10SM CLR 26/17 A3003 RMK AO2 SLP168 60000 T02560167 10261 20156 58012
KBTR 131653Z 35004KT 10SM CLR 24/16 A3005 RMK AO2 SLP176 T02440161
KBTR 131553Z 00000KT 10SM CLR 23/16 A3006 RMK AO2 SLP178 T02280156
KBTR 131453Z 00000KT 10SM CLR 21/14 A3007 RMK AO2 RAE03 SLP181 P0000 60000 T02060139 50003
KBTR 131401Z COR 03003KT 10SM FEW029 BKN120 17/13 A3007 RMK AO2 P0000 T01670128
KBTR 131353Z 03003KT 10SM -RA SCT015 SCT055 BKN110 17/13 A3007 RMK AO2 RAB38 SLP182 P0000 T01670128
KBTR 131253Z 04004KT 10SM OVC016 16/12 A3006 RMK AO2 SLP177 T01610117
KBTR 131153Z 04003KT 10SM OVC016 16/12 A3006 RMK AO2 SLP177 T01560117 10156 20139 51012
KBTR 131053Z 00000KT 10SM OVC018 16/12 A3005 RMK AO2 SLP176 T01560117
KBTR 130953Z AUTO 00000KT 10SM OVC019 15/11 A3004 RMK AO2 SLP170 T01500111
KBTR 130853Z AUTO 02005KT 10SM OVC021 15/11 A3002 RMK AO2 SLP165 T01500106 58001
KBTR 130753Z AUTO 36003KT 10SM BKN022 14/11 A3003 RMK AO2 SLP169 T01440111
KBTR 130722Z AUTO 00000KT 10SM SCT024 14/11 A3004 RMK AO2 T01390106
KBTR 130653Z AUTO 31003KT 10SM BKN025 14/11 A3003 RMK AO2 SLP169 T01390111
KBTR 130553Z 33003KT 10SM CLR 14/11 A3003 RMK AO2 SLP167 T01390106 10178 20139 402000139 55010
KBTR 130453Z 03003KT 10SM CLR 14/11 A3002 RMK AO2 SLP165 T01440106
KBTR 130353Z 07004KT 10SM CLR 14/11 A3003 RMK AO2 SLP169 T01440106
KBTR 130253Z 03003KT 10SM CLR 16/11 A3006 RMK AO2 SLP177 T01610106 55000
KBTR 130153Z 03004KT 10SM CLR 16/12 A3005 RMK AO2 SLP175 T01610122
KBTR 130053Z 00000KT 10SM CLR 17/13 A3006 RMK AO2 SLP178 T01670128
KBTR 122353Z 06004KT 10SM FEW028 18/11 A3006 RMK AO2 SLP177 T01780111 10200 20178 58001